Naper, Nebraska
Current Conditions -  °F | °C
As of 1:55 PM on Monday 22 Dec 2014 (Local Time) from KONL Reporting Station
Overcast Overcast  
Wind Chill: 29°   Ceiling: 2400
Heat Index: 39°   Visibility: 10mi
Dew Point: 37°   Wind: 17mph
Humidity: 93%   Direction: 300°WNW
Pressure: 29.44"   Gusts: 24mph
Location:  42.96°N, 99.1°W
Report Text: KONL 221955Z AUTO 30015G21KT 10SM SCT019 BKN024 OVC035 04/03 A2944 RMK AO2 T00370026
Loading
Personal Weather Stations






























Interactive Weather Map New forecast layout! Learn more

10-Day Weather Forecast

Advertisements
Track Severe Weather on mobile